createdAt,value
2023-05-18T00:00:02.565Z,16.88
2023-05-18T00:02:31.805Z,16.87
2023-05-18T00:05:02.418Z,16.84
2023-05-18T00:07:34.242Z,16.79
2023-05-18T00:10:01.975Z,16.73
2023-05-18T00:12:29.129Z,16.66
2023-05-18T00:14:55.987Z,16.65
2023-05-18T00:17:23.718Z,16.68
2023-05-18T00:19:50.840Z,16.67
2023-05-18T00:23:16.632Z,16.61
2023-05-18T00:26:31.138Z,16.54
2023-05-18T00:28:58.246Z,16.46
2023-05-18T00:31:26.229Z,16.39
2023-05-18T00:33:53.191Z,16.38
2023-05-18T00:36:20.054Z,16.39
2023-05-18T00:38:47.002Z,16.36
2023-05-18T00:41:13.956Z,16.30
2023-05-18T00:43:41.620Z,16.26
2023-05-18T00:46:08.684Z,16.23
2023-05-18T00:48:35.674Z,16.16
2023-05-18T00:51:02.531Z,16.09
2023-05-18T00:53:55.198Z,16.07
2023-05-18T00:56:23.752Z,16.07
2023-05-18T00:58:57.398Z,16.04
2023-05-18T01:01:34.953Z,16.01
2023-05-18T01:04:05.130Z,15.98
2023-05-18T01:06:36.381Z,15.94
2023-05-18T01:09:04.644Z,15.90
2023-05-18T01:11:53.224Z,15.83
2023-05-18T01:14:49.971Z,15.77
2023-05-18T01:17:33.696Z,15.78
2023-05-18T01:20:10.049Z,15.81
2023-05-18T01:22:46.157Z,15.84
2023-05-18T01:25:41.004Z,15.84
2023-05-18T01:28:10.217Z,15.82
2023-05-18T01:31:14.461Z,15.78
2023-05-18T01:33:41.648Z,15.72
2023-05-18T01:36:08.978Z,15.68
2023-05-18T01:38:35.898Z,15.69
2023-05-18T01:41:52.758Z,15.73
2023-05-18T01:44:27.625Z,15.74
2023-05-18T01:47:17.383Z,15.71
2023-05-18T01:50:09.312Z,15.67
2023-05-18T01:52:41.002Z,15.62
2023-05-18T01:55:08.688Z,15.58
2023-05-18T01:57:37.258Z,15.54
2023-05-18T02:00:08.395Z,15.54
2023-05-18T02:03:44.305Z,15.60
2023-05-18T02:06:17.405Z,15.63
2023-05-18T02:08:47.197Z,15.62
2023-05-18T02:11:14.094Z,15.59
2023-05-18T02:13:41.132Z,15.53
2023-05-18T02:16:08.346Z,15.46
2023-05-18T02:18:36.484Z,15.37
2023-05-18T02:21:04.339Z,15.31
2023-05-18T02:23:50.238Z,15.29
2023-05-18T02:26:17.251Z,15.31
2023-05-18T02:28:52.511Z,15.33
2023-05-18T02:31:19.402Z,15.31
2023-05-18T02:33:46.521Z,15.28
2023-05-18T02:36:14.256Z,15.23
2023-05-18T02:38:43.946Z,15.16
2023-05-18T02:41:11.461Z,15.10
2023-05-18T02:43:38.410Z,15.06
2023-05-18T02:46:06.366Z,15.04
2023-05-18T02:48:36.796Z,15.05
2023-05-18T02:51:07.514Z,15.04
2023-05-18T02:53:34.459Z,15.01
2023-05-18T02:56:45.199Z,14.99
2023-05-18T02:59:32.967Z,14.98
2023-05-18T03:02:25.054Z,14.99
2023-05-18T03:04:54.293Z,15.05
2023-05-18T03:07:21.421Z,15.12
2023-05-18T03:09:48.596Z,15.19
2023-05-18T03:12:21.766Z,15.28
2023-05-18T03:14:48.712Z,15.33
2023-05-18T03:17:16.838Z,15.38
2023-05-18T03:19:43.843Z,15.41
2023-05-18T03:22:10.722Z,15.46
2023-05-18T03:24:47.135Z,15.51
2023-05-18T03:27:16.618Z,15.60
2023-05-18T03:29:44.475Z,15.66
2023-05-18T03:32:12.881Z,15.70
2023-05-18T03:34:39.772Z,15.83
2023-05-18T03:37:07.336Z,15.90
2023-05-18T03:39:34.453Z,15.93
2023-05-18T03:42:01.629Z,15.98
2023-05-18T03:44:28.875Z,16.06
2023-05-18T03:46:56.136Z,16.16
2023-05-18T03:49:23.047Z,16.25
2023-05-18T03:52:34.392Z,16.33
2023-05-18T03:55:01.882Z,16.43
2023-05-18T03:57:29.214Z,16.50
2023-05-18T04:01:54.344Z,16.41
2023-05-18T04:04:23.613Z,16.66
2023-05-18T04:06:53.589Z,16.78
2023-05-18T04:09:21.938Z,16.87
2023-05-18T04:11:48.823Z,16.96
2023-05-18T04:14:17.355Z,17.03
2023-05-18T04:16:44.720Z,17.12
2023-05-18T04:19:11.882Z,17.19
2023-05-18T04:21:38.838Z,17.23
2023-05-18T04:24:07.238Z,17.27
2023-05-18T04:26:36.683Z,17.37
2023-05-18T04:29:03.760Z,17.48
2023-05-18T04:31:30.979Z,17.57
2023-05-18T04:33:58.963Z,17.63
2023-05-18T04:36:30.659Z,17.70
2023-05-18T04:39:01.043Z,17.77
2023-05-18T04:41:28.636Z,17.86
2023-05-18T04:44:59.188Z,17.93
2023-05-18T04:47:54.647Z,17.99
2023-05-18T04:50:23.998Z,18.05
2023-05-18T04:52:51.473Z,18.07
2023-05-18T04:55:28.045Z,18.08
2023-05-18T04:57:57.488Z,18.09
2023-05-18T05:01:01.708Z,18.12
2023-05-18T05:03:28.824Z,18.17
2023-05-18T05:05:56.201Z,18.27
2023-05-18T05:08:24.411Z,18.40
2023-05-18T05:10:51.355Z,18.50
2023-05-18T05:13:18.293Z,18.58
2023-05-18T05:15:45.296Z,18.66
2023-05-18T05:18:12.157Z,18.74
2023-05-18T05:20:50.228Z,18.79
2023-05-18T05:23:17.218Z,18.84
2023-05-18T05:25:54.831Z,18.89
2023-05-18T05:28:21.842Z,18.93
2023-05-18T05:30:48.765Z,18.97
2023-05-18T05:33:18.565Z,19.00
2023-05-18T05:35:45.774Z,19.05
2023-05-18T05:38:12.830Z,19.07
2023-05-18T05:40:40.044Z,19.14
2023-05-18T05:43:07.193Z,19.20
2023-05-18T05:45:34.498Z,19.28
2023-05-18T05:48:04.485Z,19.35
2023-05-18T05:50:32.312Z,19.43
2023-05-18T05:53:01.151Z,19.52
2023-05-18T05:55:30.698Z,19.59
2023-05-18T05:57:57.800Z,19.68
2023-05-18T06:00:25.425Z,19.76
2023-05-18T06:02:53.932Z,19.84
2023-05-18T06:05:28.930Z,19.93
2023-05-18T06:07:56.921Z,20.01
2023-05-18T06:10:24.058Z,20.11
2023-05-18T06:12:51.058Z,20.19
2023-05-18T06:15:19.387Z,20.28
2023-05-18T06:17:47.447Z,20.35
2023-05-18T06:20:15.203Z,20.42
2023-05-18T06:22:42.197Z,20.50
2023-05-18T06:25:29.456Z,20.60
2023-05-18T06:28:26.056Z,20.71
2023-05-18T06:31:01.004Z,20.79
2023-05-18T06:33:31.333Z,20.86
2023-05-18T06:35:58.360Z,20.94
2023-05-18T06:38:25.367Z,21.04
2023-05-18T06:40:52.393Z,21.11
2023-05-18T06:43:19.270Z,21.17
2023-05-18T06:45:56.497Z,21.24
2023-05-18T06:48:49.366Z,21.33
2023-05-18T06:51:16.649Z,21.41
2023-05-18T06:53:44.558Z,21.49
2023-05-18T06:56:13.087Z,21.57
2023-05-18T06:58:41.741Z,21.65
2023-05-18T07:01:09.924Z,21.74
2023-05-18T07:03:37.584Z,21.81
2023-05-18T07:06:04.934Z,21.89
2023-05-18T07:08:54.629Z,21.97
2023-05-18T07:11:52.689Z,22.09
2023-05-18T07:14:45.376Z,22.21
2023-05-18T07:17:38.841Z,22.37
2023-05-18T07:20:15.209Z,22.50
2023-05-18T07:22:42.157Z,22.61
2023-05-18T07:25:09.532Z,22.72
2023-05-18T07:27:36.365Z,22.81
2023-05-18T07:30:03.542Z,22.89
2023-05-18T07:32:30.601Z,22.96
2023-05-18T07:34:57.725Z,23.04
2023-05-18T07:37:24.621Z,23.12
2023-05-18T07:39:52.781Z,23.24
2023-05-18T07:42:19.650Z,23.34
2023-05-18T07:44:46.591Z,23.44
2023-05-18T07:47:13.467Z,23.53
2023-05-18T07:49:40.461Z,23.62
2023-05-18T07:52:33.756Z,23.71
2023-05-18T07:55:04.222Z,23.81
2023-05-18T07:57:31.198Z,23.89
2023-05-18T07:59:58.094Z,23.98
2023-05-18T08:02:25.674Z,24.05
2023-05-18T08:04:53.546Z,24.13
2023-05-18T08:07:21.588Z,24.17
2023-05-18T08:09:48.495Z,24.21
2023-05-18T08:12:15.461Z,24.30
2023-05-18T08:14:42.398Z,24.36
2023-05-18T08:17:09.442Z,24.41
2023-05-18T08:19:37.414Z,24.52
2023-05-18T08:22:05.414Z,24.61
2023-05-18T08:24:33.298Z,24.69
2023-05-18T08:27:01.248Z,24.76
2023-05-18T08:29:28.132Z,24.82
2023-05-18T08:31:55.057Z,24.89
2023-05-18T08:34:48.198Z,24.97
2023-05-18T08:37:15.072Z,25.05
2023-05-18T08:39:42.006Z,25.09
2023-05-18T08:42:42.031Z,25.12
2023-05-18T08:45:33.150Z,25.18
2023-05-18T08:48:01.650Z,25.24
2023-05-18T08:50:28.869Z,25.27
2023-05-18T08:52:56.099Z,25.28
2023-05-18T08:55:23.550Z,25.31
2023-05-18T08:57:58.404Z,25.36
2023-05-18T09:00:25.418Z,25.37
2023-05-18T09:02:52.532Z,25.48
2023-05-18T09:05:19.586Z,25.59
2023-05-18T09:07:46.532Z,25.63
2023-05-18T09:10:13.938Z,25.67
2023-05-18T09:13:30.888Z,25.70
2023-05-18T09:15:57.820Z,25.76
2023-05-18T09:18:27.524Z,25.84
2023-05-18T09:20:55.337Z,25.90
2023-05-18T09:23:22.287Z,25.97
2023-05-18T09:25:52.032Z,26.06
2023-05-18T09:28:38.896Z,26.17
2023-05-18T09:31:07.925Z,26.29
2023-05-18T09:33:37.379Z,26.37
2023-05-18T09:36:05.731Z,26.43
2023-05-18T09:38:36.915Z,26.51
2023-05-18T09:41:03.786Z,26.60
2023-05-18T09:43:31.247Z,26.66
2023-05-18T09:45:58.181Z,26.74
2023-05-18T09:48:25.521Z,26.80
2023-05-18T09:50:52.484Z,26.87
2023-05-18T09:53:19.595Z,26.95
2023-05-18T09:55:47.851Z,27.01
2023-05-18T09:58:15.120Z,27.07
2023-05-18T10:00:49.579Z,27.10
2023-05-18T10:03:20.879Z,27.10
2023-05-18T10:05:48.116Z,27.09
2023-05-18T10:08:15.436Z,27.11
2023-05-18T10:10:44.914Z,27.10
2023-05-18T10:13:20.033Z,27.16
2023-05-18T10:15:48.612Z,27.23
2023-05-18T10:18:19.037Z,27.32
2023-05-18T10:20:45.888Z,27.39
2023-05-18T10:23:12.783Z,27.47
2023-05-18T10:25:39.752Z,27.52
2023-05-18T10:28:07.200Z,27.56
2023-05-18T10:30:34.847Z,27.60
2023-05-18T10:33:01.978Z,27.66
2023-05-18T10:35:28.936Z,27.72
2023-05-18T10:37:56.296Z,27.78
2023-05-18T10:40:23.210Z,27.85
2023-05-18T10:42:50.767Z,27.91
2023-05-18T10:45:17.736Z,27.91
2023-05-18T10:47:45.039Z,27.95
2023-05-18T10:50:12.201Z,28.05
2023-05-18T10:52:39.237Z,28.11
2023-05-18T10:55:07.098Z,28.16
2023-05-18T10:57:38.172Z,28.20
2023-05-18T11:00:07.992Z,28.25
2023-05-18T11:02:35.050Z,28.32
2023-05-18T11:05:05.685Z,28.30
2023-05-18T11:07:34.200Z,28.26
2023-05-18T11:10:01.735Z,28.27
2023-05-18T11:12:28.656Z,28.31
2023-05-18T11:14:58.009Z,28.38
2023-05-18T11:17:26.233Z,28.50
2023-05-18T11:20:02.259Z,28.57
2023-05-18T11:22:58.538Z,28.59
2023-05-18T11:25:31.483Z,28.65
2023-05-18T11:28:02.345Z,28.74
2023-05-18T11:30:30.031Z,28.85
2023-05-18T11:33:09.891Z,28.93
2023-05-18T11:35:56.291Z,29.01
2023-05-18T11:38:23.843Z,29.08
2023-05-18T11:40:59.516Z,29.14
2023-05-18T11:43:28.979Z,29.21
2023-05-18T11:45:59.274Z,29.33
2023-05-18T11:48:27.642Z,29.42
2023-05-18T11:51:16.173Z,29.49
2023-05-18T11:53:43.238Z,29.54
2023-05-18T11:56:25.904Z,29.59
2023-05-18T11:59:13.212Z,29.65
2023-05-18T12:01:52.447Z,29.74
2023-05-18T12:04:25.646Z,29.79
2023-05-18T12:06:59.112Z,29.85
2023-05-18T12:09:26.233Z,29.93
2023-05-18T12:11:56.096Z,29.95
2023-05-18T12:15:01.210Z,29.91
2023-05-18T12:18:03.288Z,29.90
2023-05-18T12:21:17.123Z,29.97
2023-05-18T12:23:47.559Z,30.00
2023-05-18T12:27:06.838Z,29.94
2023-05-18T12:29:54.140Z,29.89
2023-05-18T12:32:50.193Z,29.86
2023-05-18T12:35:24.039Z,29.87
2023-05-18T12:42:35.347Z,29.94
2023-05-18T12:45:03.144Z,29.93
2023-05-18T12:47:33.158Z,29.96
2023-05-18T12:50:03.640Z,30.05
2023-05-18T12:52:30.648Z,30.17
2023-05-18T12:55:00.810Z,30.27
2023-05-18T12:57:27.928Z,30.33
2023-05-18T12:59:54.948Z,30.45
2023-05-18T13:02:31.858Z,30.65
2023-05-18T13:05:07.652Z,30.84
2023-05-18T13:07:42.385Z,31.05
2023-05-18T13:10:10.969Z,31.26
2023-05-18T13:12:45.491Z,31.45
2023-05-18T13:15:14.296Z,31.68
2023-05-18T13:18:12.745Z,31.81
2023-05-18T13:20:51.051Z,31.86
2023-05-18T13:23:19.658Z,31.88
2023-05-18T13:25:46.922Z,31.88
2023-05-18T13:28:15.104Z,31.93
2023-05-18T13:30:42.577Z,32.02
2023-05-18T13:33:09.694Z,32.17
2023-05-18T13:35:37.225Z,32.37
2023-05-18T13:38:04.228Z,32.57
2023-05-18T13:40:31.130Z,32.75
2023-05-18T13:42:58.051Z,32.86
2023-05-18T13:46:08.785Z,32.95
2023-05-18T13:48:35.865Z,33.04
2023-05-18T13:51:05.985Z,33.16
2023-05-18T13:53:33.003Z,33.54
2023-05-18T13:55:59.856Z,34.48
2023-05-18T13:58:26.713Z,35.74
2023-05-18T14:00:54.634Z,37.18
2023-05-18T14:03:24.309Z,38.43
2023-05-18T14:05:51.444Z,39.31
2023-05-18T14:08:18.447Z,40.09
2023-05-18T14:10:45.337Z,40.94
2023-05-18T14:13:12.232Z,41.85
2023-05-18T14:15:39.163Z,42.54
2023-05-18T14:18:06.369Z,43.02
2023-05-18T14:20:37.972Z,43.57
2023-05-18T14:23:06.051Z,43.96
2023-05-18T14:26:26.713Z,44.33
2023-05-18T14:28:53.666Z,44.75
2023-05-18T14:31:20.758Z,44.95
2023-05-18T14:34:21.655Z,45.14
2023-05-18T14:37:08.111Z,45.49
2023-05-18T14:39:35.041Z,45.80
2023-05-18T14:42:01.875Z,45.99
2023-05-18T14:44:28.743Z,46.12
2023-05-18T14:46:55.931Z,46.27
2023-05-18T14:49:22.858Z,46.39
2023-05-18T14:52:42.841Z,46.53
2023-05-18T14:55:09.929Z,46.61
2023-05-18T14:57:36.812Z,46.58
2023-05-18T15:00:04.265Z,46.44
2023-05-18T15:02:54.097Z,46.25
2023-05-18T15:05:21.155Z,46.13
2023-05-18T15:07:48.102Z,46.01
2023-05-18T15:10:15.520Z,45.98
2023-05-18T15:12:43.017Z,46.04
2023-05-18T15:15:12.992Z,46.10
2023-05-18T15:17:40.099Z,46.16
2023-05-18T15:20:11.224Z,46.29
2023-05-18T15:22:43.829Z,46.47
2023-05-18T15:25:10.677Z,46.49
2023-05-18T15:27:37.760Z,46.41
2023-05-18T15:30:11.387Z,46.31
2023-05-18T15:32:38.887Z,46.27
2023-05-18T15:35:06.404Z,46.17
2023-05-18T15:37:43.441Z,45.97
2023-05-18T15:40:10.588Z,45.87
2023-05-18T15:42:37.529Z,45.61
2023-05-18T15:45:05.148Z,45.31
2023-05-18T15:47:32.040Z,45.11
2023-05-18T15:49:58.858Z,44.78
2023-05-18T15:52:25.916Z,44.50
2023-05-18T15:54:52.899Z,44.41
2023-05-18T15:57:19.817Z,44.26
2023-05-18T15:59:46.741Z,44.06
2023-05-18T16:02:13.857Z,43.88
2023-05-18T16:04:40.815Z,43.71
2023-05-18T16:07:07.722Z,43.51
2023-05-18T16:09:34.586Z,43.30
2023-05-18T16:12:01.492Z,42.97
2023-05-18T16:14:28.645Z,42.52
2023-05-18T16:19:52.942Z,40.85
2023-05-18T16:22:19.808Z,40.11
2023-05-18T16:24:46.655Z,39.31
2023-05-18T16:27:13.645Z,38.62
2023-05-18T16:29:41.573Z,37.88
2023-05-18T16:32:14.333Z,37.17
2023-05-18T16:35:29.875Z,36.50
2023-05-18T16:37:56.835Z,35.81
2023-05-18T16:40:23.770Z,35.24
2023-05-18T16:42:50.722Z,34.76
2023-05-18T16:45:17.682Z,34.33
2023-05-18T16:47:44.827Z,33.95
2023-05-18T16:50:12.014Z,33.63
2023-05-18T16:52:38.912Z,33.36
2023-05-18T16:55:06.379Z,33.10
2023-05-18T16:57:33.846Z,32.82
2023-05-18T17:00:01.261Z,32.55
2023-05-18T17:02:28.679Z,32.31
2023-05-18T17:04:55.890Z,32.01
2023-05-18T17:07:22.893Z,31.69
2023-05-18T17:09:49.998Z,31.41
2023-05-18T17:12:17.005Z,31.18
2023-05-18T17:14:43.897Z,30.95
2023-05-18T17:17:11.462Z,30.70
2023-05-18T17:19:39.825Z,30.47
2023-05-18T17:22:06.684Z,30.27
2023-05-18T17:24:33.589Z,29.99
2023-05-18T17:27:00.795Z,29.72
2023-05-18T17:29:27.700Z,29.49
2023-05-18T17:31:54.811Z,29.31
2023-05-18T17:34:22.273Z,29.14
2023-05-18T17:36:49.453Z,28.96
2023-05-18T17:39:16.779Z,28.77
2023-05-18T17:41:44.028Z,28.62
2023-05-18T17:44:14.579Z,28.46
2023-05-18T17:46:41.990Z,28.27
2023-05-18T17:49:09.268Z,28.11
2023-05-18T17:51:36.355Z,27.99
2023-05-18T17:54:03.587Z,27.81
2023-05-18T17:56:31.731Z,27.60
2023-05-18T17:58:59.231Z,27.37
2023-05-18T18:01:27.139Z,27.16
2023-05-18T18:03:55.221Z,26.96
2023-05-18T18:06:25.167Z,26.80
2023-05-18T18:08:53.990Z,26.73
2023-05-18T18:11:46.117Z,26.66
2023-05-18T18:14:17.484Z,26.58
2023-05-18T18:16:44.572Z,26.47
2023-05-18T18:19:12.099Z,26.35
2023-05-18T18:21:39.298Z,26.23
2023-05-18T18:24:06.469Z,26.12
2023-05-18T18:26:38.755Z,26.01
2023-05-18T18:29:05.736Z,25.88
2023-05-18T18:32:23.395Z,25.76
2023-05-18T18:34:51.218Z,25.58
2023-05-18T18:37:18.390Z,25.41
2023-05-18T18:39:45.601Z,25.28
2023-05-18T18:42:12.625Z,25.17
2023-05-18T18:44:39.586Z,25.05
2023-05-18T18:47:06.539Z,24.91
2023-05-18T18:49:33.624Z,24.81
2023-05-18T18:52:00.969Z,24.70
2023-05-18T18:54:27.848Z,24.59
2023-05-18T18:56:55.258Z,24.52
2023-05-18T18:59:22.362Z,24.45
2023-05-18T19:01:49.337Z,24.40
2023-05-18T19:04:16.380Z,24.34
2023-05-18T19:06:43.922Z,24.25
2023-05-18T19:09:11.376Z,24.13
2023-05-18T19:11:38.352Z,24.04
2023-05-18T19:14:05.506Z,23.94
2023-05-18T19:16:33.082Z,23.83
2023-05-18T19:19:00.156Z,23.73
2023-05-18T19:21:28.990Z,23.65
2023-05-18T19:23:55.903Z,23.56
2023-05-18T19:26:22.912Z,23.48
2023-05-18T19:28:49.775Z,23.42
2023-05-18T19:31:16.767Z,23.29
2023-05-18T19:33:43.696Z,23.19
2023-05-18T19:36:11.637Z,23.11
2023-05-18T19:38:38.660Z,23.08
2023-05-18T19:41:05.588Z,23.02
2023-05-18T19:43:32.458Z,22.94
2023-05-18T19:45:59.330Z,22.85
2023-05-18T19:48:26.407Z,22.77
2023-05-18T19:50:53.407Z,22.64
2023-05-18T19:53:20.638Z,22.56
2023-05-18T19:55:48.877Z,22.51
2023-05-18T19:58:16.116Z,22.48
2023-05-18T20:00:43.142Z,22.52
2023-05-18T20:03:10.610Z,22.51
2023-05-18T20:05:37.565Z,22.47
2023-05-18T20:08:05.045Z,22.43
2023-05-18T20:10:32.218Z,22.39
2023-05-18T20:12:59.351Z,22.33
2023-05-18T20:15:28.045Z,22.27
2023-05-18T20:17:54.981Z,22.23
2023-05-18T20:20:21.861Z,22.19
2023-05-18T20:22:48.764Z,22.15
2023-05-18T20:25:15.860Z,22.11
2023-05-18T20:27:42.758Z,22.04
2023-05-18T20:30:10.220Z,21.96
2023-05-18T20:32:37.235Z,21.87
2023-05-18T20:35:04.374Z,21.82
2023-05-18T20:37:34.087Z,21.78
2023-05-18T20:40:01.745Z,21.79
2023-05-18T20:42:38.740Z,21.81
2023-05-18T20:45:09.212Z,21.78
2023-05-18T20:47:36.203Z,21.76
2023-05-18T20:50:03.350Z,21.75
2023-05-18T20:52:31.289Z,21.74
2023-05-18T20:54:58.156Z,21.74
2023-05-18T20:57:25.077Z,21.73
2023-05-18T20:59:52.140Z,21.74
2023-05-18T21:02:19.718Z,21.69
2023-05-18T21:04:49.708Z,21.64
2023-05-18T21:07:16.694Z,21.62
2023-05-18T21:09:43.647Z,21.59
2023-05-18T21:12:10.689Z,21.51
2023-05-18T21:14:37.628Z,21.44
2023-05-18T21:17:05.717Z,21.38
2023-05-18T21:19:32.612Z,21.33
2023-05-18T21:21:59.831Z,21.31
2023-05-18T21:24:26.764Z,21.32
2023-05-18T21:26:53.899Z,21.35
2023-05-18T21:29:21.001Z,21.37
2023-05-18T21:31:48.914Z,21.40
2023-05-18T21:34:16.425Z,21.43
2023-05-18T21:36:43.351Z,21.43
2023-05-18T21:39:10.375Z,21.43
2023-05-18T21:41:42.444Z,21.42
2023-05-18T21:44:09.434Z,21.43
2023-05-18T21:46:36.894Z,21.45
2023-05-18T21:49:05.056Z,21.47
2023-05-18T21:51:32.524Z,21.46
2023-05-18T21:54:00.011Z,21.45
2023-05-18T21:56:27.605Z,21.45
2023-05-18T21:58:54.909Z,21.43
2023-05-18T22:01:23.419Z,21.43
2023-05-18T22:03:50.955Z,21.43
2023-05-18T22:06:20.947Z,21.43
2023-05-18T22:08:47.859Z,21.44
2023-05-18T22:11:14.978Z,21.44
2023-05-18T22:13:41.886Z,21.42
2023-05-18T22:16:08.709Z,21.39
2023-05-18T22:18:35.620Z,21.35
2023-05-18T22:21:02.552Z,21.32
2023-05-18T22:23:29.395Z,21.29
2023-05-18T22:25:56.312Z,21.28
2023-05-18T22:28:23.318Z,21.27
2023-05-18T22:30:51.054Z,21.20
2023-05-18T22:33:18.218Z,21.10
2023-05-18T22:35:45.223Z,21.03
2023-05-18T22:38:12.236Z,20.97
2023-05-18T22:40:39.170Z,20.96
2023-05-18T22:43:06.246Z,20.96
2023-05-18T22:45:33.691Z,20.95
2023-05-18T22:48:01.567Z,20.94
2023-05-18T22:50:28.644Z,20.94
2023-05-18T22:52:55.532Z,20.94
2023-05-18T22:55:22.390Z,20.93
2023-05-18T22:57:49.411Z,20.93
2023-05-18T23:00:17.397Z,20.93
2023-05-18T23:02:44.620Z,20.96
2023-05-18T23:05:11.704Z,20.96
2023-05-18T23:07:38.966Z,20.97
2023-05-18T23:10:06.686Z,20.95
2023-05-18T23:12:33.882Z,20.96
2023-05-18T23:15:04.180Z,20.96
2023-05-18T23:17:32.001Z,20.95
2023-05-18T23:20:02.882Z,20.95
2023-05-18T23:22:29.779Z,20.93
2023-05-18T23:24:56.806Z,20.90
2023-05-18T23:27:23.964Z,20.87
2023-05-18T23:29:53.045Z,20.85
2023-05-18T23:32:20.238Z,20.84
2023-05-18T23:34:47.522Z,20.83
2023-05-18T23:37:14.706Z,20.82
2023-05-18T23:39:42.222Z,20.79
2023-05-18T23:42:09.319Z,20.75
2023-05-18T23:44:36.562Z,20.72
2023-05-18T23:47:03.833Z,20.70
2023-05-18T23:49:31.008Z,20.70
2023-05-18T23:52:00.814Z,20.71
2023-05-18T23:54:28.085Z,20.71
2023-05-18T23:56:55.312Z,20.72
2023-05-18T23:59:22.474Z,20.72
